Hlavní strana
METAR-TAF:

METAR-TAF

Letiště :

Pohnpei, Mikronésie

zeměpisná šířka: 06-59N, zeměpisná délka: 158-12E, výška: 2 m

Aktuální stav počasí

Zpráva byla vytvořena před 3 hodinami a 43 minutami, v 04:50 UTC
Severoseverozápadní vítr 6 kt
Teplota 29°C
Vlhkost vzduchu 84%
Tlak 1006 hPa
Viditelnost: 24.1 km
Oblačno až skoro zataženo ve výšce 1800 ft, Vertikální cumulus.
Oblačno až skoro zataženo ve výšce 13000 ft
Zataženo ve výšce 30000 ft

METAR: PTPN 150450Z 33006KT 15SM BKN018TCU BKN130 OVC300 29/26 A2972 RMK TCU ALQDS LAST

Čas: 19:33 (08:33 UTC)

Předpověď počasí

Zpráva byla vytvořena před 4 hodinami a 41 minutami, v 03:52 UTC
Předpověď platná od 15 v 04 UTC do 15 v 24 UTC
Severozápadní vítr 7 kt
Viditelnost: 10 km
Polojasno ve výšce 1800 ft
Polojasno ve výšce 3000 ft
přeháňky v blízkosti

TAF: PTPN 150352Z 1504/1524 32007KT P6SM VCSH SCT018 SCT030

Stav a předpovědi počasí z více než 4 000 letišť (zprávy METAR a TAF).

Červené a žluté tečky na mapě představují dostupné meteorologické stanice.

Když kurzor umístíte na tečku, zobrazí se název stanice.

Pak kliknutím zobrazíte stav a předpověď počasí.

Chcete-li změnit mapu, kliknutím na zelené tlačítko se znaménkem +mapu přiblížíte, kliknutím na zelené tlačítko se znaménkem – mapu oddálíte a kliknutím na zelené šipky přejdete na sousední mapy.


METAR-TAF: